SLSB/SRJ METAR and TAF weather

Enter ICAO airport designator
Station Type Date Time Source
SLSB METAR 2020/01/05 11:00 UTC NOAA

SLSB 051100Z 00000KT 9999 BKN012 SCT017 BKN200 25/25 Q1008 A2979 HR98 RWY NML


Station Type Date Time Source
SLSB Decoded METAR 2020/01/05 11:00 UTC NOAA

San Borja, Bolivia (SLSB) 14-52S 066-52W
Jan 05, 2020 - 06:00 AM EST / 2020.01.05 1100 UTC
Wind: Calm:0
Visibility: greater than 7 mile(s):0
Sky conditions: mostly cloudy
Temperature: 77 F (25 C)
Dew Point: 77 F (25 C)
Relative Humidity: 100%
Pressure (altimeter): 29.79 in. Hg (1008 hPa)
ob: SLSB 051100Z 00000KT 9999 BKN012 SCT017 BKN200 25/25 Q1008 A2979 HR98 RWY NML
cycle: 11

Station Type Date Time Source
SLSB TAF UTC NOAA

Error!

Example: see airport list